Terminal Aerodrome Forecast
Issued by NWS

Home | Current Version | Previous Version | Graphics & Text | Print | Product List | Glossary On
Versions: 1 2 3 4 5 6 7 8 9 10 11 12 13 14 15 16 17
000
FTUS43 KGRB 241137
TAFATW
TAF
KATW 241137Z 2412/2512 18010KT 5SM SHRA OVC013
      TEMPO 2412/2414 2SM -SHRA BKN009
     FM241400 20012KT 6SM HZ OVC016
     FM241500 21013G18KT P6SM OVC017
     FM241800 22012G18KT P6SM BKN026
     FM242000 23011G16KT P6SM BKN045
     FM242200 26006KT P6SM SCT040 BKN070 PROB30 2422/2504 -SHRA
      BKN025
     FM250400 26004KT P6SM BKN120=

USA.gov is the U.S. government's official web portal to all federal, state and local government web resources and services.